Time,TemperatureF,DewpointF,PressureIn,WindDirection,WindDirectionDegrees,WindSpeedMPH,WindSpeedGustMPH,Humidity,HourlyPrecipIn,Conditions,Clouds,dailyrainin,SoftwareType,DateUTC
2013-05-15 00:00:00,66.2,51.0,29.96,NNE,31,0.0,0.0,58,0.00,,,0.00,Wunderground v.1.15,2013-05-15 07:00:00,
2013-05-15 00:05:00,66.1,51.8,29.96,ENE,68,0.0,-999.0,60,0.00,,,0.00,Wunderground v.1.15,2013-05-15 07:05:00,
2013-05-15 00:10:00,66.1,51.8,29.96,ENE,68,0.0,-999.0,60,0.00,,,0.00,Wunderground v.1.15,2013-05-15 07:10:00,
2013-05-15 00:15:00,65.7,50.0,29.96,NE,45,0.0,-999.0,57,0.00,,,0.00,Wunderground v.1.15,2013-05-15 07:15:00,
2013-05-15 00:20:00,65.7,50.0,29.96,NE,45,0.0,-999.0,57,0.00,,,0.00,Wunderground v.1.15,2013-05-15 07:20:00,
2013-05-15 00:25:00,65.7,49.6,29.95,NE,45,0.0,-999.0,56,0.00,,,0.00,Wunderground v.1.15,2013-05-15 07:25:00,
2013-05-15 00:30:00,65.7,49.6,29.95,NE,45,0.0,-999.0,56,0.00,,,0.00,Wunderground v.1.15,2013-05-15 07:30:00,
2013-05-15 00:35:00,66.0,49.8,29.95,NW,315,1.0,-999.0,56,0.00,,,0.00,Wunderground v.1.15,2013-05-15 07:35:00,
2013-05-15 00:40:00,66.0,49.8,29.95,NW,315,1.0,-999.0,56,0.00,,,0.00,Wunderground v.1.15,2013-05-15 07:40:00,
2013-05-15 00:45:00,65.9,50.2,29.95,NNE,23,1.0,-999.0,57,0.00,,,0.00,Wunderground v.1.15,2013-05-15 07:45:00,
2013-05-15 00:50:00,65.9,50.2,29.95,NNE,23,1.0,-999.0,57,0.00,,,0.00,Wunderground v.1.15,2013-05-15 07:50:00,
2013-05-15 00:55:00,65.5,50.3,29.95,NW,315,1.0,-999.0,58,0.00,,,0.00,Wunderground v.1.15,2013-05-15 07:55:00,
2013-05-15 01:00:00,65.5,50.3,29.95,NW,315,1.0,-999.0,58,0.00,,,0.00,Wunderground v.1.15,2013-05-15 08:00:00,
2013-05-15 01:05:00,65.1,49.5,29.95,NNE,23,1.0,-999.0,57,0.00,,,0.00,Wunderground v.1.15,2013-05-15 08:05:00,
2013-05-15 01:10:00,65.1,49.5,29.95,NNE,23,1.0,-999.0,57,0.00,,,0.00,Wunderground v.1.15,2013-05-15 08:10:00,
2013-05-15 01:15:00,65.5,48.9,29.95,East,90,0.0,-999.0,55,0.00,,,0.00,Wunderground v.1.15,2013-05-15 08:15:00,
2013-05-15 01:20:00,65.5,48.9,29.95,East,90,0.0,-999.0,55,0.00,,,0.00,Wunderground v.1.15,2013-05-15 08:20:00,
2013-05-15 01:25:00,65.8,49.7,29.94,ENE,68,0.0,-999.0,56,0.00,,,0.00,Wunderground v.1.15,2013-05-15 08:25:00,
2013-05-15 01:30:00,65.8,49.7,29.94,ENE,68,0.0,-999.0,56,0.00,,,0.00,Wunderground v.1.15,2013-05-15 08:30:00,
2013-05-15 01:35:00,65.4,49.8,29.94,NE,45,1.0,-999.0,57,0.00,,,0.00,Wunderground v.1.15,2013-05-15 08:35:00,
2013-05-15 01:40:00,65.4,49.8,29.94,NE,45,1.0,-999.0,57,0.00,,,0.00,Wunderground v.1.15,2013-05-15 08:40:00,
2013-05-15 01:45:00,64.8,49.2,29.94,ENE,68,0.0,-999.0,57,0.00,,,0.00,Wunderground v.1.15,2013-05-15 08:45:00,
2013-05-15 01:50:00,64.8,49.2,29.94,ENE,68,0.0,-999.0,57,0.00,,,0.00,Wunderground v.1.15,2013-05-15 08:50:00,
2013-05-15 01:55:00,64.7,48.6,29.93,ENE,68,1.0,-999.0,56,0.00,,,0.00,Wunderground v.1.15,2013-05-15 08:55:00,
2013-05-15 02:00:00,64.7,48.6,29.93,ENE,68,1.0,-999.0,56,0.00,,,0.00,Wunderground v.1.15,2013-05-15 09:00:00,
2013-05-15 02:05:00,64.9,49.3,29.93,ENE,68,1.0,-999.0,57,0.00,,,0.00,Wunderground v.1.15,2013-05-15 09:05:00,
2013-05-15 02:10:00,64.9,49.3,29.93,ENE,68,1.0,-999.0,57,0.00,,,0.00,Wunderground v.1.15,2013-05-15 09:10:00,
2013-05-15 02:15:00,64.6,48.5,29.93,ENE,68,1.0,-999.0,56,0.00,,,0.00,Wunderground v.1.15,2013-05-15 09:15:00,
2013-05-15 02:25:00,65.0,47.9,29.93,ESE,113,2.0,-999.0,54,0.00,,,0.00,Wunderground v.1.15,2013-05-15 09:25:00,
2013-05-15 02:30:00,65.0,47.9,29.93,ESE,113,2.0,-999.0,54,0.00,,,0.00,Wunderground v.1.15,2013-05-15 09:30:00,
2013-05-15 02:35:00,65.4,47.8,29.92,ESE,113,2.0,-999.0,53,0.00,,,0.00,Wunderground v.1.15,2013-05-15 09:35:00,
2013-05-15 02:40:00,65.4,47.8,29.92,ESE,113,2.0,-999.0,53,0.00,,,0.00,Wunderground v.1.15,2013-05-15 09:40:00,
2013-05-15 02:45:00,65.4,48.3,29.92,ESE,113,1.0,-999.0,54,0.00,,,0.00,Wunderground v.1.15,2013-05-15 09:45:00,
2013-05-15 02:50:00,65.4,48.3,29.92,ESE,113,1.0,-999.0,54,0.00,,,0.00,Wunderground v.1.15,2013-05-15 09:50:00,
2013-05-15 02:55:00,63.8,50.5,29.92,WNW,293,1.0,-999.0,62,0.00,,,0.00,Wunderground v.1.15,2013-05-15 09:55:00,
2013-05-15 03:00:00,63.8,50.5,29.92,WNW,293,1.0,-999.0,62,0.00,,,0.00,Wunderground v.1.15,2013-05-15 10:00:00,
2013-05-15 03:05:00,61.5,48.8,29.92,WNW,293,1.0,-999.0,63,0.00,,,0.00,Wunderground v.1.15,2013-05-15 10:05:00,
2013-05-15 03:10:00,61.5,48.8,29.92,WNW,293,1.0,-999.0,63,0.00,,,0.00,Wunderground v.1.15,2013-05-15 10:10:00,
2013-05-15 03:15:00,61.1,48.8,29.92,NW,315,1.0,-999.0,64,0.00,,,0.00,Wunderground v.1.15,2013-05-15 10:15:00,
2013-05-15 03:20:00,61.1,48.8,29.92,NW,315,1.0,-999.0,64,0.00,,,0.00,Wunderground v.1.15,2013-05-15 10:20:00,
2013-05-15 03:25:00,60.8,48.5,29.92,NNW,338,1.0,-999.0,64,0.00,,,0.00,Wunderground v.1.15,2013-05-15 10:25:00,
2013-05-15 03:30:00,60.8,48.5,29.92,NNW,338,1.0,-999.0,64,0.00,,,0.00,Wunderground v.1.15,2013-05-15 10:30:00,
2013-05-15 03:35:00,60.7,48.9,29.92,NNW,338,1.0,-999.0,65,0.00,,,0.00,Wunderground v.1.15,2013-05-15 10:35:00,
2013-05-15 03:40:00,60.7,48.9,29.92,NNW,338,1.0,-999.0,65,0.00,,,0.00,Wunderground v.1.15,2013-05-15 10:40:00,
2013-05-15 03:45:00,60.6,48.4,29.92,NNW,338,1.0,-999.0,64,0.00,,,0.00,Wunderground v.1.15,2013-05-15 10:45:00,
2013-05-15 03:50:00,60.6,48.4,29.92,NNW,338,1.0,-999.0,64,0.00,,,0.00,Wunderground v.1.15,2013-05-15 10:50:00,
2013-05-15 03:55:00,60.6,48.4,29.92,NNW,338,1.0,-999.0,64,0.00,,,0.00,Wunderground v.1.15,2013-05-15 10:55:00,
2013-05-15 04:00:00,60.6,48.4,29.92,NNW,338,1.0,-999.0,64,0.00,,,0.00,Wunderground v.1.15,2013-05-15 11:00:00,
2013-05-15 04:05:00,60.7,48.0,29.92,NNW,338,0.0,-999.0,63,0.00,,,0.00,Wunderground v.1.15,2013-05-15 11:05:00,
2013-05-15 04:10:00,60.7,48.0,29.92,NNW,338,0.0,-999.0,63,0.00,,,0.00,Wunderground v.1.15,2013-05-15 11:10:00,
2013-05-15 04:15:00,60.7,47.6,29.93,NNW,338,0.0,-999.0,62,0.00,,,0.00,Wunderground v.1.15,2013-05-15 11:15:00,
2013-05-15 04:20:00,60.7,47.6,29.93,NNW,338,0.0,-999.0,62,0.00,,,0.00,Wunderground v.1.15,2013-05-15 11:20:00,
2013-05-15 04:25:00,60.7,47.6,29.93,N/A,-737280,0.0,-999.0,62,0.00,,,0.00,Wunderground v.1.15,2013-05-15 11:25:00,
2013-05-15 04:30:00,60.7,47.6,29.93,N/A,-737280,0.0,-999.0,62,0.00,,,0.00,Wunderground v.1.15,2013-05-15 11:30:00,
2013-05-15 04:35:00,60.1,48.7,29.93,NNW,338,1.0,-999.0,66,0.00,,,0.00,Wunderground v.1.15,2013-05-15 11:35:00,
2013-05-15 04:40:00,60.1,48.7,29.93,NNW,338,1.0,-999.0,66,0.00,,,0.00,Wunderground v.1.15,2013-05-15 11:40:00,
2013-05-15 04:45:00,57.9,48.9,29.94,ESE,113,2.0,-999.0,72,0.00,,,0.00,Wunderground v.1.15,2013-05-15 11:45:00,
2013-05-15 04:50:00,57.9,48.9,29.94,ESE,113,2.0,-999.0,72,0.00,,,0.00,Wunderground v.1.15,2013-05-15 11:50:00,
2013-05-15 04:55:00,56.1,47.6,29.94,SE,135,3.0,-999.0,73,0.00,,,0.00,Wunderground v.1.15,2013-05-15 11:55:00,
2013-05-15 05:00:00,56.1,47.6,29.94,SE,135,3.0,-999.0,73,0.00,,,0.00,Wunderground v.1.15,2013-05-15 12:00:00,
2013-05-15 05:05:00,55.2,45.6,29.94,SE,135,3.0,-999.0,70,0.00,,,0.00,Wunderground v.1.15,2013-05-15 12:05:00,
2013-05-15 05:10:00,55.2,45.6,29.94,SE,135,3.0,-999.0,70,0.00,,,0.00,Wunderground v.1.15,2013-05-15 12:10:00,
2013-05-15 05:15:00,54.8,44.4,29.94,SE,135,3.0,-999.0,68,0.00,,,0.00,Wunderground v.1.15,2013-05-15 12:15:00,
2013-05-15 05:20:00,54.8,44.4,29.94,SE,135,3.0,-999.0,68,0.00,,,0.00,Wunderground v.1.15,2013-05-15 12:20:00,
2013-05-15 05:25:00,54.5,44.2,29.94,SE,135,3.0,-999.0,68,0.00,,,0.00,Wunderground v.1.15,2013-05-15 12:25:00,
2013-05-15 05:30:00,54.5,44.2,29.94,SE,135,3.0,-999.0,68,0.00,,,0.00,Wunderground v.1.15,2013-05-15 12:30:00,
2013-05-15 05:35:00,54.3,44.3,29.95,ESE,113,1.0,-999.0,69,0.00,,,0.00,Wunderground v.1.15,2013-05-15 12:35:00,
2013-05-15 05:40:00,54.3,44.3,29.95,ESE,113,1.0,-999.0,69,0.00,,,0.00,Wunderground v.1.15,2013-05-15 12:40:00,
2013-05-15 05:45:00,54.0,44.4,29.95,SE,135,1.0,-999.0,70,0.00,,,0.00,Wunderground v.1.15,2013-05-15 12:45:00,
2013-05-15 05:50:00,54.0,44.4,29.95,SE,135,1.0,-999.0,70,0.00,,,0.00,Wunderground v.1.15,2013-05-15 12:50:00,
2013-05-15 05:55:00,53.7,43.8,29.95,SE,135,1.0,-999.0,69,0.00,,,0.00,Wunderground v.1.15,2013-05-15 12:55:00,
2013-05-15 06:00:00,53.7,43.8,29.95,SE,135,1.0,-999.0,69,0.00,,,0.00,Wunderground v.1.15,2013-05-15 13:00:00,
2013-05-15 06:05:00,53.6,43.7,29.96,SE,135,1.0,-999.0,69,0.00,,,0.00,Wunderground v.1.15,2013-05-15 13:05:00,
2013-05-15 06:10:00,53.6,43.7,29.96,SE,135,1.0,-999.0,69,0.00,,,0.00,Wunderground v.1.15,2013-05-15 13:10:00,
2013-05-15 06:15:00,53.7,43.4,29.96,SE,135,0.0,-999.0,68,0.00,,,0.00,Wunderground v.1.15,2013-05-15 13:15:00,
2013-05-15 06:20:00,53.7,43.4,29.96,SE,135,0.0,-999.0,68,0.00,,,0.00,Wunderground v.1.15,2013-05-15 13:20:00,
2013-05-15 06:35:00,54.3,43.6,29.96,ESE,120,0.0,0.0,67,0.00,,,0.00,Wunderground v.1.15,2013-05-15 13:35:00,
2013-05-15 06:40:00,54.5,43.8,29.96,SE,125,0.0,0.0,67,0.00,,,0.00,Wunderground v.1.15,2013-05-15 13:40:00,
2013-05-15 06:50:00,55.0,43.8,29.97,SE,125,0.0,0.0,66,0.00,,,0.00,Wunderground v.1.15,2013-05-15 13:50:00,
2013-05-15 06:55:00,55.4,44.2,29.97,SE,125,1.0,1.0,66,0.00,,,0.00,Wunderground v.1.15,2013-05-15 13:55:00,
2013-05-15 07:00:00,55.7,44.1,29.97,SE,125,1.0,1.0,65,0.00,,,0.00,Wunderground v.1.15,2013-05-15 14:00:00,
2013-05-15 07:10:00,56.3,44.3,29.97,East,98,1.0,1.0,64,0.00,,,0.00,Wunderground v.1.15,2013-05-15 14:10:00,
2013-05-15 07:15:00,56.8,44.7,29.97,East,98,1.0,2.0,64,0.00,,,0.00,Wunderground v.1.15,2013-05-15 14:15:00,
2013-05-15 07:25:00,57.1,45.4,29.97,ESE,122,2.0,2.0,65,0.00,,,0.00,Wunderground v.1.15,2013-05-15 14:25:00,
2013-05-15 07:30:00,57.2,44.7,29.97,ESE,113,2.0,-999.0,63,0.00,,,0.00,Wunderground v.1.15,2013-05-15 14:30:00,
2013-05-15 07:35:00,57.8,44.9,29.97,ESE,119,2.0,2.0,62,0.00,,,0.00,Wunderground v.1.15,2013-05-15 14:35:00,
2013-05-15 07:40:00,58.1,45.1,29.97,SE,126,2.0,3.0,62,0.00,,,0.00,Wunderground v.1.15,2013-05-15 14:40:00,
2013-05-15 07:45:00,58.4,45.4,29.98,ESE,111,2.0,3.0,62,0.00,,,0.00,Wunderground v.1.15,2013-05-15 14:45:00,
2013-05-15 07:50:00,58.5,45.5,29.98,ESE,113,2.0,-999.0,62,0.00,,,0.00,Wunderground v.1.15,2013-05-15 14:50:00,
2013-05-15 07:55:00,59.1,44.8,29.97,SE,128,2.0,3.0,59,0.00,,,0.00,Wunderground v.1.15,2013-05-15 14:55:00,
2013-05-15 08:00:00,59.3,45.0,29.98,SE,135,2.0,-999.0,59,0.00,,,0.00,Wunderground v.1.15,2013-05-15 15:00:00,
2013-05-15 08:05:00,60.5,42.8,29.98,SE,135,2.0,-999.0,52,0.00,,,0.00,Wunderground v.1.15,2013-05-15 15:05:00,
2013-05-15 08:30:00,61.9,43.0,29.99,SE,135,2.0,-999.0,50,0.00,,,0.00,Wunderground v.1.15,2013-05-15 15:30:00,
2013-05-15 08:35:00,62.4,42.4,29.99,SE,135,2.0,-999.0,48,0.00,,,0.00,Wunderground v.1.15,2013-05-15 15:35:00,
2013-05-15 08:40:00,62.4,42.4,29.99,SE,135,2.0,-999.0,48,0.00,,,0.00,Wunderground v.1.15,2013-05-15 15:40:00,
2013-05-15 08:45:00,62.8,43.9,29.99,SE,135,2.0,-999.0,50,0.00,,,0.00,Wunderground v.1.15,2013-05-15 15:45:00,
2013-05-15 08:50:00,62.8,43.9,29.99,SE,135,2.0,-999.0,50,0.00,,,0.00,Wunderground v.1.15,2013-05-15 15:50:00,
2013-05-15 08:55:00,63.1,42.0,29.99,SE,135,3.0,-999.0,46,0.00,,,0.00,Wunderground v.1.15,2013-05-15 15:55:00,
2013-05-15 09:00:00,63.1,42.0,29.99,SE,135,3.0,-999.0,46,0.00,,,0.00,Wunderground v.1.15,2013-05-15 16:00:00,
2013-05-15 09:05:00,63.4,42.8,30.00,SE,135,2.0,-999.0,47,0.00,,,0.00,Wunderground v.1.15,2013-05-15 16:05:00,
2013-05-15 09:10:00,63.4,42.8,30.00,SE,135,2.0,-999.0,47,0.00,,,0.00,Wunderground v.1.15,2013-05-15 16:10:00,
2013-05-15 09:15:00,63.8,43.2,30.00,ESE,113,2.0,-999.0,47,0.00,,,0.00,Wunderground v.1.15,2013-05-15 16:15:00,
2013-05-15 09:20:00,63.8,43.2,30.00,ESE,113,2.0,-999.0,47,0.00,,,0.00,Wunderground v.1.15,2013-05-15 16:20:00,
2013-05-15 09:25:00,64.9,42.5,30.00,SE,135,3.0,-999.0,44,0.00,,,0.00,Wunderground v.1.15,2013-05-15 16:25:00,
2013-05-15 09:30:00,64.9,42.5,30.00,SE,135,3.0,-999.0,44,0.00,,,0.00,Wunderground v.1.15,2013-05-15 16:30:00,
2013-05-15 09:35:00,65.0,43.7,30.00,SSE,158,3.0,-999.0,46,0.00,,,0.00,Wunderground v.1.15,2013-05-15 16:35:00,
2013-05-15 09:40:00,65.0,43.7,30.00,SSE,158,3.0,-999.0,46,0.00,,,0.00,Wunderground v.1.15,2013-05-15 16:40:00,
2013-05-15 09:45:00,66.0,43.5,30.01,SSE,158,3.0,-999.0,44,0.00,,,0.00,Wunderground v.1.15,2013-05-15 16:45:00,
2013-05-15 09:50:00,66.0,43.5,30.01,SSE,158,3.0,-999.0,44,0.00,,,0.00,Wunderground v.1.15,2013-05-15 16:50:00,
2013-05-15 09:55:00,66.6,44.6,30.00,SSE,158,3.0,-999.0,45,0.00,,,0.00,Wunderground v.1.15,2013-05-15 16:55:00,
2013-05-15 10:00:00,66.6,44.6,30.00,SSE,158,3.0,-999.0,45,0.00,,,0.00,Wunderground v.1.15,2013-05-15 17:00:00,
2013-05-15 10:05:00,66.9,44.3,30.00,SE,135,4.0,-999.0,44,0.00,,,0.00,Wunderground v.1.15,2013-05-15 17:05:00,
2013-05-15 10:10:00,66.9,44.3,30.00,SE,135,4.0,-999.0,44,0.00,,,0.00,Wunderground v.1.15,2013-05-15 17:10:00,
2013-05-15 10:15:00,67.4,45.9,30.01,South,180,3.0,-999.0,46,0.00,,,0.00,Wunderground v.1.15,2013-05-15 17:15:00,
2013-05-15 10:20:00,67.4,45.9,30.01,South,180,3.0,-999.0,46,0.00,,,0.00,Wunderground v.1.15,2013-05-15 17:20:00,
2013-05-15 10:25:00,68.0,45.9,30.00,South,180,4.0,-999.0,45,0.00,,,0.00,Wunderground v.1.15,2013-05-15 17:25:00,
2013-05-15 10:30:00,68.0,45.9,30.00,South,180,4.0,-999.0,45,0.00,,,0.00,Wunderground v.1.15,2013-05-15 17:30:00,
2013-05-15 10:35:00,68.1,45.4,30.01,SSE,158,3.0,-999.0,44,0.00,,,0.00,Wunderground v.1.15,2013-05-15 17:35:00,
2013-05-15 10:40:00,68.1,45.4,30.01,SSE,158,3.0,-999.0,44,0.00,,,0.00,Wunderground v.1.15,2013-05-15 17:40:00,
2013-05-15 10:45:00,68.8,45.4,30.01,SSE,158,3.0,-999.0,43,0.00,,,0.00,Wunderground v.1.15,2013-05-15 17:45:00,
2013-05-15 10:50:00,68.8,45.4,30.01,SSE,158,3.0,-999.0,43,0.00,,,0.00,Wunderground v.1.15,2013-05-15 17:50:00,
2013-05-15 10:55:00,69.3,43.9,30.01,SE,135,3.0,-999.0,40,0.00,,,0.00,Wunderground v.1.15,2013-05-15 17:55:00,
2013-05-15 11:00:00,69.3,43.9,30.01,SE,135,3.0,-999.0,40,0.00,,,0.00,Wunderground v.1.15,2013-05-15 18:00:00,
2013-05-15 11:05:00,70.8,44.6,30.02,SE,135,2.0,-999.0,39,0.00,,,0.00,Wunderground v.1.15,2013-05-15 18:05:00,
2013-05-15 11:10:00,70.8,44.6,30.02,SE,135,2.0,-999.0,39,0.00,,,0.00,Wunderground v.1.15,2013-05-15 18:10:00,
2013-05-15 11:15:00,71.1,44.9,30.01,SE,135,3.0,-999.0,39,0.00,,,0.00,Wunderground v.1.15,2013-05-15 18:15:00,
2013-05-15 11:20:00,71.1,44.9,30.01,SE,135,3.0,-999.0,39,0.00,,,0.00,Wunderground v.1.15,2013-05-15 18:20:00,
2013-05-15 11:25:00,71.6,45.3,30.02,SE,135,3.0,-999.0,39,0.00,,,0.00,Wunderground v.1.15,2013-05-15 18:25:00,
2013-05-15 11:30:00,71.6,45.3,30.02,SE,135,3.0,-999.0,39,0.00,,,0.00,Wunderground v.1.15,2013-05-15 18:30:00,
2013-05-15 11:35:00,71.9,44.9,30.02,SSE,158,3.0,-999.0,38,0.00,,,0.00,Wunderground v.1.15,2013-05-15 18:35:00,
2013-05-15 11:40:00,71.9,44.9,30.02,SSE,158,3.0,-999.0,38,0.00,,,0.00,Wunderground v.1.15,2013-05-15 18:40:00,
2013-05-15 11:45:00,71.4,45.1,30.01,SE,135,3.0,-999.0,39,0.00,,,0.00,Wunderground v.1.15,2013-05-15 18:45:00,
2013-05-15 11:50:00,71.4,45.1,30.01,SE,135,3.0,-999.0,39,0.00,,,0.00,Wunderground v.1.15,2013-05-15 18:50:00,
2013-05-15 11:55:00,71.7,44.0,30.02,SE,135,3.0,-999.0,37,0.00,,,0.00,Wunderground v.1.15,2013-05-15 18:55:00,
2013-05-15 12:00:00,71.7,44.0,30.02,SE,135,3.0,-999.0,37,0.00,,,0.00,Wunderground v.1.15,2013-05-15 19:00:00,
2013-05-15 12:05:00,72.3,44.6,30.02,SE,135,3.0,-999.0,37,0.00,,,0.00,Wunderground v.1.15,2013-05-15 19:05:00,
2013-05-15 12:10:00,72.3,44.6,30.02,SE,135,3.0,-999.0,37,0.00,,,0.00,Wunderground v.1.15,2013-05-15 19:10:00,
2013-05-15 12:15:00,72.0,43.6,30.02,South,180,3.0,-999.0,36,0.00,,,0.00,Wunderground v.1.15,2013-05-15 19:15:00,
2013-05-15 12:20:00,72.0,43.6,30.02,South,180,3.0,-999.0,36,0.00,,,0.00,Wunderground v.1.15,2013-05-15 19:20:00,
2013-05-15 12:25:00,71.5,45.2,30.02,ESE,113,3.0,-999.0,39,0.00,,,0.00,Wunderground v.1.15,2013-05-15 19:25:00,
2013-05-15 12:30:00,71.5,45.2,30.02,ESE,113,3.0,-999.0,39,0.00,,,0.00,Wunderground v.1.15,2013-05-15 19:30:00,
2013-05-15 12:35:00,71.6,42.5,30.01,SE,135,3.0,-999.0,35,0.00,,,0.00,Wunderground v.1.15,2013-05-15 19:35:00,
2013-05-15 12:40:00,71.6,42.5,30.01,SE,135,3.0,-999.0,35,0.00,,,0.00,Wunderground v.1.15,2013-05-15 19:40:00,
2013-05-15 12:45:00,72.1,45.8,30.01,SE,135,2.0,-999.0,39,0.00,,,0.00,Wunderground v.1.15,2013-05-15 19:45:00,
2013-05-15 12:50:00,72.1,45.8,30.01,SE,135,2.0,-999.0,39,0.00,,,0.00,Wunderground v.1.15,2013-05-15 19:50:00,
2013-05-15 12:55:00,71.7,44.0,30.01,ESE,113,3.0,-999.0,37,0.00,,,0.00,Wunderground v.1.15,2013-05-15 19:55:00,
2013-05-15 13:00:00,71.7,44.0,30.01,ESE,113,3.0,-999.0,37,0.00,,,0.00,Wunderground v.1.15,2013-05-15 20:00:00,
2013-05-15 13:05:00,71.5,45.9,30.01,SE,135,2.0,-999.0,40,0.00,,,0.00,Wunderground v.1.15,2013-05-15 20:05:00,
2013-05-15 13:10:00,71.5,45.9,30.01,SE,135,2.0,-999.0,40,0.00,,,0.00,Wunderground v.1.15,2013-05-15 20:10:00,
2013-05-15 13:15:00,71.4,44.5,30.01,SE,135,2.0,-999.0,38,0.00,,,0.00,Wunderground v.1.15,2013-05-15 20:15:00,
2013-05-15 13:20:00,71.4,44.5,30.01,SE,135,2.0,-999.0,38,0.00,,,0.00,Wunderground v.1.15,2013-05-15 20:20:00,
2013-05-15 13:25:00,71.9,44.2,30.02,SE,135,2.0,-999.0,37,0.00,,,0.00,Wunderground v.1.15,2013-05-15 20:25:00,
2013-05-15 13:30:00,71.9,44.2,30.02,SE,135,2.0,-999.0,37,0.00,,,0.00,Wunderground v.1.15,2013-05-15 20:30:00,
2013-05-15 13:35:00,71.6,46.0,30.02,SE,135,2.0,-999.0,40,0.00,,,0.00,Wunderground v.1.15,2013-05-15 20:35:00,
2013-05-15 13:40:00,71.6,46.0,30.02,SE,135,2.0,-999.0,40,0.00,,,0.00,Wunderground v.1.15,2013-05-15 20:40:00,
2013-05-15 13:45:00,71.3,44.4,30.02,SE,135,3.0,-999.0,38,0.00,,,0.00,Wunderground v.1.15,2013-05-15 20:45:00,
2013-05-15 13:50:00,71.3,44.4,30.02,SE,135,3.0,-999.0,38,0.00,,,0.00,Wunderground v.1.15,2013-05-15 20:50:00,
2013-05-15 13:55:00,71.2,42.1,30.02,SE,135,3.0,-999.0,35,0.00,,,0.00,Wunderground v.1.15,2013-05-15 20:55:00,
2013-05-15 14:00:00,71.2,42.1,30.02,SE,135,3.0,-999.0,35,0.00,,,0.00,Wunderground v.1.15,2013-05-15 21:00:00,
2013-05-15 14:05:00,71.3,45.1,30.02,ESE,113,2.0,-999.0,39,0.00,,,0.00,Wunderground v.1.15,2013-05-15 21:05:00,
2013-05-15 14:10:00,71.3,45.1,30.02,ESE,113,2.0,-999.0,39,0.00,,,0.00,Wunderground v.1.15,2013-05-15 21:10:00,
2013-05-15 14:15:00,71.3,44.4,30.02,SE,135,2.0,-999.0,38,0.00,,,0.00,Wunderground v.1.15,2013-05-15 21:15:00,
2013-05-15 14:20:00,71.3,44.4,30.02,SE,135,2.0,-999.0,38,0.00,,,0.00,Wunderground v.1.15,2013-05-15 21:20:00,
2013-05-15 14:25:00,71.4,45.1,30.02,SE,135,1.0,-999.0,39,0.00,,,0.00,Wunderground v.1.15,2013-05-15 21:25:00,
2013-05-15 14:30:00,71.4,45.1,30.02,SE,135,1.0,-999.0,39,0.00,,,0.00,Wunderground v.1.15,2013-05-15 21:30:00,
2013-05-15 14:35:00,71.0,44.8,30.02,SE,135,2.0,-999.0,39,0.00,,,0.00,Wunderground v.1.15,2013-05-15 21:35:00,
2013-05-15 14:40:00,71.0,44.8,30.02,SE,135,2.0,-999.0,39,0.00,,,0.00,Wunderground v.1.15,2013-05-15 21:40:00,
2013-05-15 14:45:00,70.4,45.6,30.02,SE,135,2.0,-999.0,41,0.00,,,0.00,Wunderground v.1.15,2013-05-15 21:45:00,
2013-05-15 14:50:00,70.4,45.6,30.02,SE,135,2.0,-999.0,41,0.00,,,0.00,Wunderground v.1.15,2013-05-15 21:50:00,
2013-05-15 14:55:00,70.9,45.4,30.02,ESE,113,2.0,-999.0,40,0.00,,,0.00,Wunderground v.1.15,2013-05-15 21:55:00,
2013-05-15 15:00:00,70.9,45.4,30.02,ESE,113,2.0,-999.0,40,0.00,,,0.00,Wunderground v.1.15,2013-05-15 22:00:00,
2013-05-15 15:05:00,70.3,45.5,30.02,SE,135,2.0,-999.0,41,0.00,,,0.00,Wunderground v.1.15,2013-05-15 22:05:00,
2013-05-15 15:10:00,70.3,45.5,30.02,SE,135,2.0,-999.0,41,0.00,,,0.00,Wunderground v.1.15,2013-05-15 22:10:00,
2013-05-15 15:15:00,70.8,46.6,30.02,NW,315,1.0,-999.0,42,0.00,,,0.00,Wunderground v.1.15,2013-05-15 22:15:00,
2013-05-15 15:20:00,70.8,46.6,30.02,NW,315,1.0,-999.0,42,0.00,,,0.00,Wunderground v.1.15,2013-05-15 22:20:00,
2013-05-15 15:25:00,71.0,47.4,30.02,East,90,1.0,-999.0,43,0.00,,,0.00,Wunderground v.1.15,2013-05-15 22:25:00,
2013-05-15 15:30:00,71.0,47.4,30.02,East,90,1.0,-999.0,43,0.00,,,0.00,Wunderground v.1.15,2013-05-15 22:30:00,
2013-05-15 15:35:00,71.1,46.8,30.01,SE,135,2.0,-999.0,42,0.00,,,0.00,Wunderground v.1.15,2013-05-15 22:35:00,
2013-05-15 15:40:00,71.1,46.8,30.01,SE,135,2.0,-999.0,42,0.00,,,0.00,Wunderground v.1.15,2013-05-15 22:40:00,
2013-05-15 15:45:00,70.3,47.3,30.01,SE,135,2.0,-999.0,44,0.00,,,0.00,Wunderground v.1.15,2013-05-15 22:45:00,
2013-05-15 15:50:00,70.3,47.3,30.01,SE,135,2.0,-999.0,44,0.00,,,0.00,Wunderground v.1.15,2013-05-15 22:50:00,
2013-05-15 15:55:00,70.3,46.7,30.01,SSE,158,2.0,-999.0,43,0.00,,,0.00,Wunderground v.1.15,2013-05-15 22:55:00,
2013-05-15 16:00:00,70.3,46.7,30.01,SSE,158,2.0,-999.0,43,0.00,,,0.00,Wunderground v.1.15,2013-05-15 23:00:00,
2013-05-15 16:05:00,70.3,47.3,30.01,SSE,158,2.0,-999.0,44,0.00,,,0.00,Wunderground v.1.15,2013-05-15 23:05:00,
2013-05-15 16:10:00,70.3,47.3,30.01,SSE,158,2.0,-999.0,44,0.00,,,0.00,Wunderground v.1.15,2013-05-15 23:10:00,
2013-05-15 16:15:00,70.6,47.6,30.01,SE,135,1.0,-999.0,44,0.00,,,0.00,Wunderground v.1.15,2013-05-15 23:15:00,
2013-05-15 16:20:00,70.6,47.6,30.01,SE,135,1.0,-999.0,44,0.00,,,0.00,Wunderground v.1.15,2013-05-15 23:20:00,
2013-05-15 16:25:00,70.5,46.9,30.01,SE,135,1.0,-999.0,43,0.00,,,0.00,Wunderground v.1.15,2013-05-15 23:25:00,
2013-05-15 16:30:00,70.5,46.9,30.01,SE,135,1.0,-999.0,43,0.00,,,0.00,Wunderground v.1.15,2013-05-15 23:30:00,
2013-05-15 16:35:00,70.3,46.7,30.00,ESE,113,1.0,-999.0,43,0.00,,,0.00,Wunderground v.1.15,2013-05-15 23:35:00,
2013-05-15 16:40:00,70.3,46.7,30.00,ESE,113,1.0,-999.0,43,0.00,,,0.00,Wunderground v.1.15,2013-05-15 23:40:00,
2013-05-15 16:45:00,70.6,47.6,30.01,East,90,1.0,-999.0,44,0.00,,,0.00,Wunderground v.1.15,2013-05-15 23:45:00,
2013-05-15 16:50:00,70.6,47.6,30.01,East,90,1.0,-999.0,44,0.00,,,0.00,Wunderground v.1.15,2013-05-15 23:50:00,
2013-05-15 16:55:00,70.3,48.5,30.01,East,90,1.0,-999.0,46,0.00,,,0.00,Wunderground v.1.15,2013-05-15 23:55:00,
2013-05-15 17:00:00,70.3,48.5,30.01,East,90,1.0,-999.0,46,0.00,,,0.00,Wunderground v.1.15,2013-05-16 00:00:00,
2013-05-15 17:05:00,70.1,47.8,30.00,West,270,1.0,-999.0,45,0.00,,,0.00,Wunderground v.1.15,2013-05-16 00:05:00,
2013-05-15 17:10:00,70.1,47.8,30.00,West,270,1.0,-999.0,45,0.00,,,0.00,Wunderground v.1.15,2013-05-16 00:10:00,
2013-05-15 17:15:00,70.1,47.8,30.00,ESE,113,1.0,-999.0,45,0.00,,,0.00,Wunderground v.1.15,2013-05-16 00:15:00,
2013-05-15 17:20:00,70.1,47.8,30.00,ESE,113,1.0,-999.0,45,0.00,,,0.00,Wunderground v.1.15,2013-05-16 00:20:00,
2013-05-15 17:25:00,70.6,47.6,30.00,ESE,113,0.0,-999.0,44,0.00,,,0.00,Wunderground v.1.15,2013-05-16 00:25:00,
2013-05-15 17:30:00,70.6,47.6,30.00,ESE,113,0.0,-999.0,44,0.00,,,0.00,Wunderground v.1.15,2013-05-16 00:30:00,
2013-05-15 17:35:00,70.0,48.3,30.00,ESE,113,1.0,-999.0,46,0.00,,,0.00,Wunderground v.1.15,2013-05-16 00:35:00,
2013-05-15 17:40:00,70.0,48.3,30.00,ESE,113,1.0,-999.0,46,0.00,,,0.00,Wunderground v.1.15,2013-05-16 00:40:00,
2013-05-15 17:45:00,69.3,48.2,30.00,SSE,158,1.0,-999.0,47,0.00,,,0.00,Wunderground v.1.15,2013-05-16 00:45:00,
2013-05-15 17:50:00,69.3,48.2,30.00,SSE,158,1.0,-999.0,47,0.00,,,0.00,Wunderground v.1.15,2013-05-16 00:50:00,
2013-05-15 17:55:00,68.8,48.3,30.00,SSE,158,0.0,-999.0,48,0.00,,,0.00,Wunderground v.1.15,2013-05-16 00:55:00,
2013-05-15 18:00:00,68.8,48.3,30.00,SSE,158,0.0,-999.0,48,0.00,,,0.00,Wunderground v.1.15,2013-05-16 01:00:00,
2013-05-15 18:05:00,68.7,48.2,30.00,ESE,113,1.0,-999.0,48,0.00,,,0.00,Wunderground v.1.15,2013-05-16 01:05:00,
2013-05-15 18:10:00,68.7,48.2,30.00,ESE,113,1.0,-999.0,48,0.00,,,0.00,Wunderground v.1.15,2013-05-16 01:10:00,
2013-05-15 18:15:00,68.2,47.8,30.00,ESE,113,0.0,-999.0,48,0.00,,,0.00,Wunderground v.1.15,2013-05-16 01:15:00,
2013-05-15 18:20:00,68.2,47.8,30.00,ESE,113,0.0,-999.0,48,0.00,,,0.00,Wunderground v.1.15,2013-05-16 01:20:00,
2013-05-15 18:25:00,67.8,47.4,30.00,SSE,158,0.0,-999.0,48,0.00,,,0.00,Wunderground v.1.15,2013-05-16 01:25:00,
2013-05-15 18:30:00,67.8,47.4,30.00,SSE,158,0.0,-999.0,48,0.00,,,0.00,Wunderground v.1.15,2013-05-16 01:30:00,
2013-05-15 18:35:00,67.3,47.5,30.00,SE,135,0.0,-999.0,49,0.00,,,0.00,Wunderground v.1.15,2013-05-16 01:35:00,
2013-05-15 18:40:00,67.3,47.5,30.00,SE,135,0.0,-999.0,49,0.00,,,0.00,Wunderground v.1.15,2013-05-16 01:40:00,
2013-05-15 18:45:00,66.7,46.9,30.00,SE,135,0.0,-999.0,49,0.00,,,0.00,Wunderground v.1.15,2013-05-16 01:45:00,
2013-05-15 18:50:00,66.7,46.9,30.00,SE,135,0.0,-999.0,49,0.00,,,0.00,Wunderground v.1.15,2013-05-16 01:50:00,
2013-05-15 18:55:00,66.6,46.8,30.00,ESE,113,1.0,-999.0,49,0.00,,,0.00,Wunderground v.1.15,2013-05-16 01:55:00,
2013-05-15 19:00:00,66.6,46.8,30.00,ESE,113,1.0,-999.0,49,0.00,,,0.00,Wunderground v.1.15,2013-05-16 02:00:00,
2013-05-15 19:05:00,66.4,47.7,30.00,SE,135,0.0,-999.0,51,0.00,,,0.00,Wunderground v.1.15,2013-05-16 02:05:00,
2013-05-15 19:10:00,66.4,47.7,30.00,SE,135,0.0,-999.0,51,0.00,,,0.00,Wunderground v.1.15,2013-05-16 02:10:00,
2013-05-15 19:15:00,66.2,47.0,30.00,SE,135,0.0,-999.0,50,0.00,,,0.00,Wunderground v.1.15,2013-05-16 02:15:00,
2013-05-15 19:20:00,66.2,47.0,30.00,SE,135,0.0,-999.0,50,0.00,,,0.00,Wunderground v.1.15,2013-05-16 02:20:00,
2013-05-15 19:25:00,65.8,47.2,30.00,SE,135,0.0,-999.0,51,0.00,,,0.00,Wunderground v.1.15,2013-05-16 02:25:00,
2013-05-15 19:30:00,65.8,47.2,30.00,SE,135,0.0,-999.0,51,0.00,,,0.00,Wunderground v.1.15,2013-05-16 02:30:00,
2013-05-15 19:35:00,65.4,46.8,30.00,N/A,-737280,0.0,-999.0,51,0.00,,,0.00,Wunderground v.1.15,2013-05-16 02:35:00,
2013-05-15 19:40:00,65.4,46.8,30.00,N/A,-737280,0.0,-999.0,51,0.00,,,0.00,Wunderground v.1.15,2013-05-16 02:40:00,
2013-05-15 19:55:00,64.5,46.5,30.00,SE,128,0.0,0.0,52,0.00,,,0.00,Wunderground v.1.15,2013-05-16 02:55:00,
2013-05-15 20:00:00,64.2,46.2,30.00,SE,128,0.0,0.0,52,0.00,,,0.00,Wunderground v.1.15,2013-05-16 03:00:00,
2013-05-15 20:10:00,63.7,46.2,30.00,SE,128,0.0,0.0,53,0.00,,,0.00,Wunderground v.1.15,2013-05-16 03:10:00,
2013-05-15 20:20:00,63.3,45.9,30.01,SE,128,0.0,0.0,53,0.00,,,0.00,Wunderground v.1.15,2013-05-16 03:20:00,
2013-05-15 20:25:00,63.1,46.7,30.01,SE,128,0.0,0.0,55,0.00,,,0.00,Wunderground v.1.15,2013-05-16 03:25:00,
2013-05-15 20:30:00,62.9,47.0,30.01,SE,128,0.0,0.0,56,0.00,,,0.00,Wunderground v.1.15,2013-05-16 03:30:00,
2013-05-15 20:35:00,62.6,46.2,30.00,SE,128,0.0,0.0,55,0.00,,,0.00,Wunderground v.1.15,2013-05-16 03:35:00,
2013-05-15 20:45:00,62.2,46.8,30.00,SE,128,1.0,1.0,57,0.00,,,0.00,Wunderground v.1.15,2013-05-16 03:45:00,
2013-05-15 20:50:00,61.7,45.8,30.00,SE,128,1.0,2.0,56,0.00,,,0.00,Wunderground v.1.15,2013-05-16 03:50:00,
2013-05-15 20:55:00,61.4,46.0,30.00,SE,130,1.0,2.0,57,0.00,,,0.00,Wunderground v.1.15,2013-05-16 03:55:00,
2013-05-15 21:00:00,61.4,45.1,30.00,SE,132,1.0,1.0,55,0.00,,,0.00,Wunderground v.1.15,2013-05-16 04:00:00,
2013-05-15 21:05:00,61.6,45.3,30.00,SE,131,1.0,1.0,55,0.00,,,0.00,Wunderground v.1.15,2013-05-16 04:05:00,
2013-05-15 21:10:00,61.8,45.0,30.00,SE,131,0.0,0.0,54,0.00,,,0.00,Wunderground v.1.15,2013-05-16 04:10:00,
2013-05-15 21:15:00,62.0,44.7,30.00,SSW,193,1.0,1.0,53,0.00,,,0.00,Wunderground v.1.15,2013-05-16 04:15:00,
2013-05-15 21:20:00,62.1,45.2,30.00,SSW,193,1.0,1.0,54,0.00,,,0.00,Wunderground v.1.15,2013-05-16 04:20:00,
2013-05-15 21:25:00,62.1,45.2,30.00,SSW,193,0.0,1.0,54,0.00,,,0.00,Wunderground v.1.15,2013-05-16 04:25:00,
2013-05-15 21:30:00,61.8,45.0,30.00,SSW,193,0.0,0.0,54,0.00,,,0.00,Wunderground v.1.15,2013-05-16 04:30:00,
2013-05-15 21:35:00,61.7,44.9,30.00,SSW,193,0.0,0.0,54,0.00,,,0.00,Wunderground v.1.15,2013-05-16 04:35:00,
2013-05-15 21:40:00,61.6,45.3,30.01,SSW,193,0.0,0.0,55,0.00,,,0.00,Wunderground v.1.15,2013-05-16 04:40:00,
2013-05-15 21:45:00,61.5,45.2,30.01,SSW,193,0.0,0.0,55,0.00,,,0.00,Wunderground v.1.15,2013-05-16 04:45:00,
2013-05-15 21:50:00,61.3,45.5,30.01,SSW,193,0.0,0.0,56,0.00,,,0.00,Wunderground v.1.15,2013-05-16 04:50:00,
2013-05-15 21:55:00,61.2,45.4,30.01,SSW,193,0.0,0.0,56,0.00,,,0.00,Wunderground v.1.15,2013-05-16 04:55:00,
2013-05-15 22:00:00,61.2,45.4,30.01,SSE,163,0.0,0.0,56,0.00,,,0.00,Wunderground v.1.15,2013-05-16 05:00:00,
2013-05-15 22:10:00,61.3,45.9,30.01,SSE,161,0.0,1.0,57,0.00,,,0.00,Wunderground v.1.15,2013-05-16 05:10:00,
2013-05-15 22:15:00,61.3,45.5,30.00,ESE,115,1.0,1.0,56,0.00,,,0.00,Wunderground v.1.15,2013-05-16 05:15:00,
2013-05-15 22:25:00,61.2,45.8,30.00,ESE,113,1.0,1.0,57,0.00,,,0.00,Wunderground v.1.15,2013-05-16 05:25:00,
2013-05-15 22:30:00,60.8,46.8,30.00,ESE,112,1.0,1.0,60,0.00,,,0.00,Wunderground v.1.15,2013-05-16 05:30:00,
2013-05-15 22:35:00,59.6,46.6,30.00,ESE,112,1.0,2.0,62,0.00,,,0.00,Wunderground v.1.15,2013-05-16 05:35:00,
2013-05-15 22:40:00,58.6,46.9,30.00,ESE,113,2.0,2.0,65,0.00,,,0.00,Wunderground v.1.15,2013-05-16 05:40:00,
2013-05-15 22:45:00,58.4,47.1,30.00,ESE,113,1.0,2.0,66,0.00,,,0.00,Wunderground v.1.15,2013-05-16 05:45:00,
2013-05-15 22:50:00,58.7,46.5,30.00,ESE,113,0.0,0.0,64,0.00,,,0.00,Wunderground v.1.15,2013-05-16 05:50:00,
2013-05-15 22:55:00,59.1,46.1,30.00,SSE,165,0.0,0.0,62,0.00,,,0.00,Wunderground v.1.15,2013-05-16 05:55:00,
2013-05-15 23:00:00,59.4,46.4,30.00,SSE,165,0.0,0.0,62,0.00,,,0.00,Wunderground v.1.15,2013-05-16 06:00:00,
2013-05-15 23:05:00,59.3,46.7,30.00,SSE,158,0.0,-999.0,63,0.00,,,0.00,Wunderground v.1.15,2013-05-16 06:05:00,
2013-05-15 23:10:00,59.3,46.7,30.00,SSE,165,0.0,0.0,63,0.00,,,0.00,Wunderground v.1.15,2013-05-16 06:10:00,
2013-05-15 23:15:00,59.1,46.5,30.00,SSE,165,0.0,0.0,63,0.00,,,0.00,Wunderground v.1.15,2013-05-16 06:15:00,
2013-05-15 23:20:00,59.0,46.4,30.00,SSE,165,0.0,0.0,63,0.00,,,0.00,Wunderground v.1.15,2013-05-16 06:20:00,
2013-05-15 23:25:00,59.0,46.8,30.00,SSE,165,0.0,0.0,64,0.00,,,0.00,Wunderground v.1.15,2013-05-16 06:25:00,
2013-05-15 23:30:00,59.0,46.4,30.00,N/A,-737280,0.0,-999.0,63,0.00,,,0.00,Wunderground v.1.15,2013-05-16 06:30:00,
2013-05-15 23:35:00,59.2,46.6,29.99,SSE,158,0.0,-999.0,63,0.00,,,0.00,Wunderground v.1.15,2013-05-16 06:35:00,
2013-05-15 23:40:00,59.2,46.6,29.99,SSE,158,0.0,-999.0,63,0.00,,,0.00,Wunderground v.1.15,2013-05-16 06:40:00,
2013-05-15 23:45:00,59.0,46.4,29.99,SSE,158,0.0,-999.0,63,0.00,,,0.00,Wunderground v.1.15,2013-05-16 06:45:00,
2013-05-15 23:50:00,59.0,46.4,29.99,SSE,158,0.0,-999.0,63,0.00,,,0.00,Wunderground v.1.15,2013-05-16 06:50:00,
2013-05-15 23:55:00,58.8,46.6,29.99,South,180,0.0,-999.0,64,0.00,,,0.00,Wunderground v.1.15,2013-05-16 06:55:00,